createdAt,value
2022-10-11T00:02:20.208Z,17.51
2022-10-11T00:05:22.359Z,17.45
2022-10-11T00:08:25.009Z,17.50
2022-10-11T00:11:27.364Z,17.55
2022-10-11T00:14:29.881Z,17.54
2022-10-11T00:17:33.220Z,17.55
2022-10-11T00:20:35.590Z,17.55
2022-10-11T00:23:38.413Z,17.57
2022-10-11T00:26:45.755Z,17.57
2022-10-11T00:29:49.098Z,17.60
2022-10-11T00:32:53.075Z,17.55
2022-10-11T00:35:55.339Z,17.58
2022-10-11T00:38:58.233Z,17.55
2022-10-11T00:42:00.422Z,17.57
2022-10-11T00:45:27.376Z,17.54
2022-10-11T00:48:49.072Z,17.54
2022-10-11T00:51:56.979Z,17.53
2022-10-11T00:55:06.459Z,17.53
2022-10-11T00:58:10.845Z,17.48
2022-10-11T01:01:13.867Z,17.50
2022-10-11T01:04:16.197Z,17.51
2022-10-11T01:07:21.390Z,17.50
2022-10-11T01:10:23.673Z,17.50
2022-10-11T01:13:50.350Z,17.51
2022-10-11T01:17:01.062Z,17.57
2022-10-11T01:20:28.602Z,17.58
2022-10-11T01:23:52.882Z,17.61
2022-10-11T01:27:01.434Z,17.61
2022-10-11T01:30:19.602Z,17.64
2022-10-11T01:33:38.361Z,17.61
2022-10-11T01:36:50.172Z,17.67
2022-10-11T01:40:01.504Z,17.65
2022-10-11T01:43:06.579Z,17.71
2022-10-11T01:46:10.937Z,17.70
2022-10-11T01:49:14.159Z,17.63
2022-10-11T01:52:16.608Z,17.64
2022-10-11T01:55:32.234Z,17.65
2022-10-11T01:58:56.044Z,17.63
2022-10-11T02:02:16.799Z,17.65
2022-10-11T02:05:43.507Z,17.65
2022-10-11T02:09:07.160Z,17.65
2022-10-11T02:12:13.826Z,17.65
2022-10-11T02:15:17.627Z,17.64
2022-10-11T02:18:25.602Z,17.67
2022-10-11T02:21:29.882Z,17.68
2022-10-11T02:24:40.434Z,17.67
2022-10-11T02:27:47.590Z,17.65
2022-10-11T02:30:52.218Z,17.67
2022-10-11T02:34:10.215Z,17.68
2022-10-11T02:37:35.637Z,17.68
2022-10-11T02:40:45.528Z,17.65
2022-10-11T02:44:16.461Z,17.65
2022-10-11T02:47:19.856Z,17.67
2022-10-11T02:50:23.332Z,17.70
2022-10-11T02:53:27.418Z,17.68
2022-10-11T02:56:29.608Z,17.67
2022-10-11T02:59:32.257Z,17.63
2022-10-11T03:02:34.652Z,17.64
2022-10-11T03:05:44.147Z,17.65
2022-10-11T03:08:46.509Z,17.65
2022-10-11T03:11:49.259Z,17.63
2022-10-11T03:14:53.401Z,17.63
2022-10-11T03:17:57.040Z,17.61
2022-10-11T03:20:59.485Z,17.63
2022-10-11T03:24:01.809Z,17.65
2022-10-11T03:27:04.059Z,17.63
2022-10-11T03:30:09.116Z,17.64
2022-10-11T03:33:11.199Z,17.60
2022-10-11T03:36:15.386Z,17.58
2022-10-11T03:39:18.730Z,17.61
2022-10-11T03:42:21.412Z,17.58
2022-10-11T03:45:24.388Z,17.60
2022-10-11T03:48:27.912Z,17.58
2022-10-11T03:51:30.536Z,17.60
2022-10-11T03:54:33.033Z,17.60
2022-10-11T03:57:35.099Z,17.60
2022-10-11T04:00:39.611Z,17.58
2022-10-11T04:03:42.006Z,17.57
2022-10-11T04:06:46.439Z,17.61
2022-10-11T04:09:48.527Z,17.60
2022-10-11T04:12:50.774Z,17.58
2022-10-11T04:15:52.669Z,17.58
2022-10-11T04:18:54.946Z,17.58
2022-10-11T04:21:57.403Z,17.57
2022-10-11T04:25:00.209Z,17.60
2022-10-11T04:28:02.327Z,17.61
2022-10-11T04:31:06.058Z,17.58
2022-10-11T04:34:08.125Z,17.58
2022-10-11T04:37:11.146Z,17.58
2022-10-11T04:40:13.253Z,17.58
2022-10-11T04:43:20.102Z,17.60
2022-10-11T04:46:23.416Z,17.60
2022-10-11T04:49:25.849Z,17.60
2022-10-11T04:52:27.902Z,17.60
2022-10-11T04:55:30.777Z,17.58
2022-10-11T04:58:35.329Z,17.61
2022-10-11T05:01:37.917Z,17.61
2022-10-11T05:04:40.139Z,17.60
2022-10-11T05:07:44.345Z,17.61
2022-10-11T05:11:07.235Z,17.60
2022-10-11T05:14:10.285Z,17.60
2022-10-11T05:17:12.813Z,17.61
2022-10-11T05:20:15.279Z,17.61
2022-10-11T05:23:17.306Z,17.63
2022-10-11T05:26:20.821Z,17.61
2022-10-11T05:29:23.065Z,17.61
2022-10-11T05:32:27.885Z,17.63
2022-10-11T05:35:30.448Z,17.64
2022-10-11T05:38:33.609Z,17.61
2022-10-11T05:41:35.947Z,17.60
2022-10-11T05:44:38.453Z,17.64
2022-10-11T05:47:40.614Z,17.64
2022-10-11T05:50:43.051Z,17.63
2022-10-11T05:53:45.020Z,17.63
2022-10-11T05:56:47.541Z,17.61
2022-10-11T05:59:50.375Z,17.60
2022-10-11T06:02:53.520Z,17.60
2022-10-11T06:05:57.177Z,17.60
2022-10-11T06:08:59.716Z,17.61
2022-10-11T06:12:02.233Z,17.63
2022-10-11T06:15:06.585Z,17.58
2022-10-11T06:18:08.913Z,17.60
2022-10-11T06:21:11.298Z,17.60
2022-10-11T06:24:13.601Z,17.58
2022-10-11T06:27:16.450Z,17.60
2022-10-11T06:30:18.619Z,17.61
2022-10-11T06:33:21.443Z,17.60
2022-10-11T06:36:23.669Z,17.64
2022-10-11T06:39:26.064Z,17.61
2022-10-11T06:42:28.158Z,17.60
2022-10-11T06:45:32.696Z,17.60
2022-10-11T06:48:40.180Z,17.60
2022-10-11T06:51:43.560Z,17.60
2022-10-11T06:54:45.836Z,17.63
2022-10-11T06:57:48.264Z,17.63
2022-10-11T07:00:51.049Z,17.65
2022-10-11T07:03:56.241Z,17.64
2022-10-11T07:06:58.245Z,17.63
2022-10-11T07:10:01.692Z,17.67
2022-10-11T07:13:04.697Z,17.65
2022-10-11T07:16:12.455Z,17.67
2022-10-11T07:19:14.783Z,17.65
2022-10-11T07:22:18.126Z,17.65
2022-10-11T07:25:20.385Z,17.67
2022-10-11T07:28:23.788Z,17.68
2022-10-11T07:31:26.709Z,17.70
2022-10-11T07:34:29.223Z,17.71
2022-10-11T07:37:34.598Z,17.71
2022-10-11T07:40:46.739Z,17.73
2022-10-11T07:43:50.353Z,17.71
2022-10-11T07:46:53.617Z,17.73
2022-10-11T07:49:55.712Z,17.77
2022-10-11T07:52:58.634Z,17.78
2022-10-11T07:56:02.749Z,17.77
2022-10-11T07:59:05.540Z,17.79
2022-10-11T08:02:14.497Z,17.84
2022-10-11T08:05:17.768Z,17.82
2022-10-11T08:08:19.930Z,17.82
2022-10-11T08:11:26.590Z,17.86
2022-10-11T08:14:28.734Z,17.88
2022-10-11T08:17:31.146Z,17.89
2022-10-11T08:20:33.354Z,17.92
2022-10-11T08:23:36.347Z,17.92
2022-10-11T08:26:38.670Z,17.96
2022-10-11T08:29:40.997Z,17.96
2022-10-11T08:32:43.423Z,18.02
2022-10-11T08:35:46.090Z,18.04
2022-10-11T08:38:48.277Z,18.04
2022-10-11T08:41:57.994Z,18.09
2022-10-11T08:45:12.348Z,18.10
2022-10-11T08:48:19.473Z,18.13
2022-10-11T08:51:25.549Z,18.12
2022-10-11T08:54:46.802Z,18.15
2022-10-11T08:57:53.993Z,18.16
2022-10-11T09:00:58.193Z,18.21
2022-10-11T09:04:00.690Z,18.22
2022-10-11T09:07:19.473Z,18.24
2022-10-11T09:10:25.527Z,18.26
2022-10-11T09:13:35.172Z,18.28
2022-10-11T09:16:43.985Z,18.29
2022-10-11T09:20:29.377Z,18.30
2022-10-11T09:24:22.763Z,18.33
2022-10-11T09:28:01.166Z,18.35
2022-10-11T09:31:01.340Z,18.37
2022-10-11T09:34:14.010Z,18.40
2022-10-11T09:37:35.657Z,18.42
2022-10-11T09:40:59.337Z,18.45
2022-10-11T09:44:01.887Z,18.49
2022-10-11T09:47:05.942Z,18.47
2022-10-11T09:50:18.596Z,18.50
2022-10-11T09:53:22.224Z,18.53
2022-10-11T09:56:27.068Z,18.56
2022-10-11T09:59:32.604Z,18.59
2022-10-11T10:02:47.665Z,18.59
2022-10-11T10:06:06.886Z,18.57
2022-10-11T10:09:28.076Z,18.61
2022-10-11T10:12:31.433Z,18.66
2022-10-11T10:15:37.970Z,18.61
2022-10-11T10:18:51.424Z,18.70
2022-10-11T10:21:56.428Z,18.71
2022-10-11T10:25:02.158Z,18.74
2022-10-11T10:28:21.889Z,18.76
2022-10-11T10:31:49.499Z,18.80
2022-10-11T10:35:06.753Z,18.80
2022-10-11T10:38:32.946Z,18.87
2022-10-11T10:41:36.602Z,18.90
2022-10-11T10:44:38.939Z,18.91
2022-10-11T10:47:57.877Z,18.94
2022-10-11T10:51:12.805Z,18.90
2022-10-11T10:54:30.147Z,17.86
2022-10-11T10:58:01.191Z,16.93
2022-10-11T11:01:15.263Z,16.49
2022-10-11T11:04:34.416Z,16.56
2022-10-11T11:08:19.764Z,16.72
2022-10-11T11:11:32.319Z,17.00
2022-10-11T11:15:02.678Z,17.00
2022-10-11T11:18:17.258Z,17.14
2022-10-11T11:21:27.488Z,17.06
2022-10-11T11:24:52.371Z,16.93
2022-10-11T11:28:09.110Z,17.34
2022-10-11T11:31:29.973Z,17.71
2022-10-11T11:34:42.302Z,18.02
2022-10-11T11:37:53.011Z,18.24
2022-10-11T11:41:06.621Z,17.95
2022-10-11T11:44:22.770Z,18.12
2022-10-11T11:47:43.424Z,17.70
2022-10-11T11:51:03.057Z,17.71
2022-10-11T11:54:30.117Z,17.95
2022-10-11T11:57:50.967Z,18.18
2022-10-11T12:00:59.423Z,18.25
2022-10-11T12:04:22.606Z,17.28
2022-10-11T12:07:27.697Z,16.86
2022-10-11T12:10:54.753Z,16.62
2022-10-11T12:13:57.985Z,16.14
2022-10-11T12:17:22.886Z,16.14
2022-10-11T12:20:37.567Z,16.36
2022-10-11T12:23:43.674Z,16.25
2022-10-11T12:27:29.388Z,16.65
2022-10-11T12:30:44.484Z,16.94
2022-10-11T12:33:47.667Z,17.58
2022-10-11T12:36:51.720Z,17.99
2022-10-11T12:39:58.074Z,18.15
2022-10-11T12:43:31.485Z,18.42
2022-10-11T12:46:39.655Z,18.69
2022-10-11T12:49:48.050Z,18.57
2022-10-11T12:53:02.433Z,18.66
2022-10-11T12:56:27.339Z,18.16
2022-10-11T12:59:31.771Z,17.99
2022-10-11T13:02:42.724Z,18.18
2022-10-11T13:05:51.023Z,18.33
2022-10-11T13:09:00.270Z,18.15
2022-10-11T13:12:09.420Z,18.15
2022-10-11T13:15:21.459Z,17.30
2022-10-11T13:18:25.951Z,17.00
2022-10-11T13:21:36.504Z,16.80
2022-10-11T13:24:40.832Z,17.20
2022-10-11T13:27:44.120Z,17.60
2022-10-11T13:30:54.716Z,17.86
2022-10-11T13:33:59.748Z,17.41
2022-10-11T13:37:02.008Z,17.33
2022-10-11T13:40:05.479Z,17.55
2022-10-11T13:43:08.379Z,17.23
2022-10-11T13:46:20.401Z,17.37
2022-10-11T13:49:37.593Z,17.23
2022-10-11T13:52:55.700Z,17.04
2022-10-11T13:56:00.115Z,17.34
2022-10-11T13:59:02.920Z,17.94
2022-10-11T14:02:05.157Z,17.89
2022-10-11T14:05:08.614Z,18.05
2022-10-11T14:08:23.150Z,18.53
2022-10-11T14:11:37.693Z,18.69
2022-10-11T14:14:42.074Z,18.80
2022-10-11T14:17:45.996Z,18.96
2022-10-11T14:20:50.130Z,18.97
2022-10-11T14:24:05.487Z,18.42
2022-10-11T14:27:11.551Z,18.37
2022-10-11T14:30:27.399Z,18.47
2022-10-11T14:33:30.650Z,18.81
2022-10-11T14:36:33.836Z,18.96
2022-10-11T14:39:36.107Z,19.08
2022-10-11T14:42:38.553Z,18.94
2022-10-11T14:45:40.753Z,18.94
2022-10-11T14:48:54.833Z,18.71
2022-10-11T14:51:58.880Z,18.37
2022-10-11T14:55:02.393Z,18.50
2022-10-11T14:58:05.783Z,18.71
2022-10-11T15:01:13.029Z,17.89
2022-10-11T15:04:16.311Z,17.61
2022-10-11T15:07:18.786Z,17.31
2022-10-11T15:10:37.910Z,17.33
2022-10-11T15:13:40.294Z,17.53
2022-10-11T15:16:42.462Z,17.21
2022-10-11T15:19:45.375Z,17.35
2022-10-11T15:22:47.531Z,17.54
2022-10-11T15:25:50.490Z,17.71
2022-10-11T15:28:54.462Z,17.35
2022-10-11T15:31:57.226Z,17.35
2022-10-11T15:34:59.269Z,17.09
2022-10-11T15:38:01.670Z,16.77
2022-10-11T15:41:04.554Z,16.47
2022-10-11T15:44:07.257Z,16.25
2022-10-11T15:47:09.510Z,16.24
2022-10-11T15:50:37.657Z,16.11
2022-10-11T15:53:40.961Z,16.32
2022-10-11T15:56:43.917Z,16.32
2022-10-11T15:59:46.877Z,16.33
2022-10-11T16:02:52.066Z,16.33
2022-10-11T16:05:55.133Z,16.33
2022-10-11T16:08:57.849Z,16.33
2022-10-11T16:12:00.079Z,16.21
2022-10-11T16:15:02.923Z,16.11
2022-10-11T16:18:06.258Z,16.09
2022-10-11T16:21:10.829Z,16.14
2022-10-11T16:24:14.510Z,16.17
2022-10-11T16:27:19.006Z,16.24
2022-10-11T16:30:21.644Z,16.24
2022-10-11T16:33:24.579Z,16.32
2022-10-11T16:36:32.357Z,16.48
2022-10-11T16:39:35.659Z,16.42
2022-10-11T16:42:40.949Z,16.42
2022-10-11T16:45:44.001Z,16.45
2022-10-11T16:48:47.081Z,16.47
2022-10-11T16:51:51.559Z,16.53
2022-10-11T16:54:55.595Z,16.66
2022-10-11T16:57:58.124Z,16.83
2022-10-11T17:01:00.317Z,16.92
2022-10-11T17:04:03.317Z,16.97
2022-10-11T17:07:12.465Z,17.34
2022-10-11T17:10:15.430Z,17.74
2022-10-11T17:13:17.490Z,17.95
2022-10-11T17:16:22.433Z,18.10
2022-10-11T17:19:26.305Z,18.24
2022-10-11T17:22:28.894Z,18.32
2022-10-11T17:25:31.081Z,18.32
2022-10-11T17:28:35.398Z,18.37
2022-10-11T17:31:38.825Z,18.35
2022-10-11T17:34:41.174Z,18.37
2022-10-11T17:37:43.244Z,18.39
2022-10-11T17:40:47.115Z,18.40
2022-10-11T17:43:49.441Z,18.37
2022-10-11T17:46:52.183Z,18.46
2022-10-11T17:49:54.257Z,18.49
2022-10-11T17:52:56.713Z,18.50
2022-10-11T17:55:59.426Z,18.49
2022-10-11T17:59:02.163Z,18.49
2022-10-11T18:02:04.287Z,18.52
2022-10-11T18:05:08.953Z,18.47
2022-10-11T18:08:11.383Z,18.50
2022-10-11T18:11:19.293Z,18.52
2022-10-11T18:14:21.440Z,18.52
2022-10-11T18:17:23.883Z,18.46
2022-10-11T18:20:26.288Z,18.50
2022-10-11T18:23:28.823Z,18.47
2022-10-11T18:26:31.278Z,18.46
2022-10-11T18:29:35.017Z,18.46
2022-10-11T18:32:37.694Z,18.47
2022-10-11T18:35:40.647Z,18.46
2022-10-11T18:38:46.673Z,18.46
2022-10-11T18:41:49.307Z,18.49
2022-10-11T18:44:51.606Z,18.49
2022-10-11T18:47:54.157Z,18.46
2022-10-11T18:51:08.231Z,18.49
2022-10-11T18:54:16.980Z,18.47
2022-10-11T18:57:24.311Z,18.45
2022-10-11T19:00:42.163Z,18.45
2022-10-11T19:03:46.667Z,18.47
2022-10-11T19:06:49.646Z,18.42
2022-10-11T19:09:51.817Z,18.45
2022-10-11T19:12:54.116Z,18.46
2022-10-11T19:16:04.650Z,18.43
2022-10-11T19:19:09.664Z,18.46
2022-10-11T19:22:11.515Z,18.43
2022-10-11T19:25:15.021Z,18.43
2022-10-11T19:28:17.411Z,18.43
2022-10-11T19:31:19.771Z,18.39
2022-10-11T19:34:23.418Z,18.42
2022-10-11T19:37:26.695Z,18.39
2022-10-11T19:40:30.354Z,18.40
2022-10-11T19:43:35.412Z,18.37
2022-10-11T19:46:51.002Z,18.40
2022-10-11T19:49:54.306Z,18.40
2022-10-11T19:52:56.223Z,18.37
2022-10-11T19:56:04.071Z,18.35
2022-10-11T19:59:06.830Z,18.29
2022-10-11T20:02:10.738Z,18.28
2022-10-11T20:05:14.249Z,18.29
2022-10-11T20:08:17.163Z,18.30
2022-10-11T20:11:20.880Z,18.29
2022-10-11T20:14:23.656Z,18.29
2022-10-11T20:17:46.237Z,18.32
2022-10-11T20:20:56.011Z,18.35
2022-10-11T20:24:03.916Z,18.33
2022-10-11T20:27:06.656Z,18.33
2022-10-11T20:30:10.982Z,18.32
2022-10-11T20:33:13.397Z,18.29
2022-10-11T20:36:18.471Z,18.29
2022-10-11T20:39:21.037Z,18.30
2022-10-11T20:42:27.591Z,18.32
2022-10-11T20:45:32.106Z,18.28
2022-10-11T20:48:35.665Z,18.28
2022-10-11T20:51:41.841Z,18.26
2022-10-11T20:54:44.067Z,18.25
2022-10-11T20:57:46.716Z,18.26
2022-10-11T21:00:49.667Z,18.26
2022-10-11T21:03:52.541Z,18.25
2022-10-11T21:06:55.013Z,18.24
2022-10-11T21:09:57.538Z,18.25
2022-10-11T21:13:00.137Z,18.26
2022-10-11T21:16:08.648Z,18.22
2022-10-11T21:19:14.147Z,18.24
2022-10-11T21:22:16.513Z,18.19
2022-10-11T21:25:18.574Z,18.19
2022-10-11T21:28:21.381Z,18.21
2022-10-11T21:31:24.034Z,18.22
2022-10-11T21:34:26.337Z,18.22
2022-10-11T21:37:28.294Z,18.19
2022-10-11T21:40:30.536Z,18.19
2022-10-11T21:43:35.516Z,18.19
2022-10-11T21:50:01.277Z,18.19
2022-10-11T21:53:03.782Z,18.19
2022-10-11T21:56:07.341Z,18.22
2022-10-11T21:59:12.660Z,18.16
2022-10-11T22:02:15.103Z,18.21
2022-10-11T22:05:18.517Z,18.18
2022-10-11T22:08:21.279Z,18.19
2022-10-11T22:11:23.783Z,18.18
2022-10-11T22:14:25.996Z,18.21
2022-10-11T22:17:28.678Z,18.19
2022-10-11T22:20:34.845Z,18.16
2022-10-11T22:23:37.305Z,18.19
2022-10-11T22:26:39.730Z,18.19
2022-10-11T22:29:43.176Z,18.16
2022-10-11T22:32:45.431Z,18.13
2022-10-11T22:35:48.014Z,18.18
2022-10-11T22:38:51.326Z,18.16
2022-10-11T22:41:54.872Z,18.15
2022-10-11T22:44:56.879Z,18.15
2022-10-11T22:47:59.298Z,18.13
2022-10-11T22:51:02.168Z,18.10
2022-10-11T22:54:04.715Z,18.12
2022-10-11T22:57:06.669Z,18.09
2022-10-11T23:00:09.423Z,18.12
2022-10-11T23:03:16.078Z,18.10
2022-10-11T23:06:18.636Z,18.12
2022-10-11T23:09:20.749Z,18.13
2022-10-11T23:12:22.943Z,18.10
2022-10-11T23:15:25.037Z,18.10
2022-10-11T23:18:27.384Z,18.10
2022-10-11T23:21:29.469Z,18.06
2022-10-11T23:24:31.804Z,18.04
2022-10-11T23:27:35.577Z,17.98
2022-10-11T23:30:39.851Z,18.04
2022-10-11T23:33:42.244Z,17.99
2022-10-11T23:36:44.476Z,17.92
2022-10-11T23:39:46.407Z,17.86
2022-10-11T23:42:49.057Z,17.91
2022-10-11T23:45:51.550Z,17.86
2022-10-11T23:48:54.074Z,17.89
2022-10-11T23:51:57.339Z,17.89
2022-10-11T23:55:00.029Z,17.91
2022-10-11T23:58:02.085Z,17.86
